Airfield :
LOGIN :

Register | Disclaimer

   EN    FR    IT 

 










Legend :    VFR   Marginal VFR   IFR   Intensive IFR   Very Intensive IFR
Visi :
Ceiling :
>= 8 km
>= 3000ft
5 to 8 km
1000 to 3000 ft
1500m to 5 km
500 to 1000 ft
800 to 1500m
200 to 500 ft
< 800m
< 200 ft
Symbols :   Thunderstorms  Fog  Heavy snow  Heavy precipitations  Wind > 20 kt
SIGMETs :     Misc.  Thunderstorms  Icing  Turbulence  Mountain Waves  Volcanic Ashes






- Airport Elevation : 256 ft
- IATA code : CFR


LFRK - Caen

CURRENT METAR :
  • 280500Z AUTO 22004KT 9999 BKN007/// BKN064/// 05/04 Q1022

EXPIRED METARs :
  • 280430Z AUTO 00000KT 9999 FEW020/// SCT029/// OVC064/// 04/03 Q1022
  • 280400Z AUTO 17003KT 9999 BKN008/// OVC028/// 04/04 Q1021
  • 280330Z AUTO 13005KT 9999 BKN009/// 03/03 Q1021
  • 280300Z AUTO 13003KT 100V160 9999 NCD 04/03 Q1022
  • 280230Z AUTO 19004KT 100V230 9999 NCD 05/03 Q1022
  • 280200Z AUTO 24008KT 9999 NCD 06/05 Q1022
  • 280130Z AUTO 25007KT 9999 NCD 05/03 Q1022
  • 280100Z AUTO 23006KT 9999 NCD 04/03 Q1022
  • 280030Z AUTO 23007KT 9999 NCD 04/03 Q1022

Expired Forecast.
Met : +33 2 31 26 68 11



MET'MAP, your aeronautical weather chart ! - Copyright ORBIFLY December 2007 - Disclaimer

ORBIFLY MET'MAP TEAM :

Programming & Development : Alexandra Zaïnal
Original concept : Baudouin d'Aumeries
Technical & hardware support : Manuel Goepfert
Assistance : Marc-Olivier Méhu




SOURCES & CREDITS :

   NOAA